^^
Grace C. Lehan Memorial Weather Station Historical Data
Daily Summary for April 23, 2021 Units:  English    Metric   Both
Daily Weekly Monthly Yearly
  High: Low: Average:
Temperature: 61.6 °F 43.3 °F 53.1 °F
Dew Point: 45.5 °F 38.8 °F 42.6 °F
Humidity: 87% 51% 68%
Wind Speed: 4.5mph 0mph 0.2mph
Wind Gust: 12mph - -
Wind- - WNW
Pressure: 29.97 in 29.87 in -
Precipitation: 0.00 in    
 
 
Tabular Data for April 23, 2021
Time Temperature Dew Point Pressure Wind Wind Speed Wind Gust Humidity Rainfall Rate (Hourly) solar
00:00 53.8 °F 44.3 °F 29.90 in Calm   5 mph 70% 0.00 in 0 W/m2
00:09 53.6 °F 44.3 °F 29.90 in Calm     70.6% 0.00 in 0 W/m2
00:14 53.5 °F 44.4 °F 29.90 in NW 0.8 mph 5 mph 71% 0.00 in 0 W/m2
00:19 53.5 °F 44.3 °F 29.90 in Calm   5 mph 71% 0.00 in 0 W/m2
00:24 53.5 °F 44.3 °F 29.91 in Calm   5 mph 71% 0.00 in 0 W/m2
00:29 53.5 °F 44.3 °F 29.91 in Calm   5 mph 71% 0.00 in 0 W/m2
00:34 53.5 °F 44.4 °F 29.91 in Calm   5 mph 71% 0.00 in 0 W/m2
00:39 53.6 °F 44.4 °F 29.91 in Calm     71% 0.00 in 0 W/m2
00:44 53.6 °F 44.5 °F 29.92 in Calm     71% 0.00 in 0 W/m2
00:49 53.7 °F 44.4 °F 29.92 in Calm     70.8% 0.00 in 0 W/m2
00:54 53.7 °F 44.2 °F 29.92 in Calm     70% 0.00 in 0 W/m2
00:59 53.7 °F 44 °F 29.92 in Calm     69.6% 0.00 in 0 W/m2
01:04 53.8 °F 44 °F 29.92 in Calm     69.4% 0.00 in 0 W/m2
01:09 53.8 °F 44 °F 29.92 in Calm     69.4% 0.00 in 0 W/m2
01:14 53.8 °F 43.9 °F 29.92 in Calm     69% 0.00 in 0 W/m2
01:19 53.8 °F 43.9 °F 29.92 in Calm     69% 0.00 in 0 W/m2
01:24 53.8 °F 43.9 °F 29.92 in Calm     69% 0.00 in 0 W/m2
01:29 53.8 °F 43.9 °F 29.92 in NW 0.5 mph 4 mph 69.1% 0.00 in 0 W/m2
01:34 53.7 °F 43.6 °F 29.91 in Calm   4 mph 68.5% 0.00 in 0 W/m2
01:39 53.7 °F 43.5 °F 29.92 in Calm     68.2% 0.00 in 0 W/m2
01:44 53.6 °F 43.3 °F 29.92 in Calm   1 mph 68% 0.00 in 0 W/m2
01:49 53.6 °F 42.8 °F 29.92 in Calm   1 mph 66.9% 0.00 in 0 W/m2
01:54 53.5 °F 42.8 °F 29.92 in Calm   1 mph 67% 0.00 in 0 W/m2
01:59 53.4 °F 42.8 °F 29.92 in Calm   1 mph 67% 0.00 in 0 W/m2
02:04 53.3 °F 42.4 °F 29.91 in NNE 0.4 mph 4 mph 66.3% 0.00 in 0 W/m2
02:09 53.2 °F 41.8 °F 29.91 in NW 0.8 mph 6 mph 65% 0.00 in 0 W/m2
02:14 53.1 °F 41.4 °F 29.91 in NW 0.9 mph 6 mph 64.2% 0.00 in 0 W/m2
02:19 53 °F 41.4 °F 29.90 in Calm   6 mph 64.5% 0.00 in 0 W/m2
02:24 52.8 °F 41 °F 29.90 in Calm   6 mph 64% 0.00 in 0 W/m2
02:29 52.7 °F 41 °F 29.90 in Calm   6 mph 64.3% 0.00 in 0 W/m2
02:34 52.6 °F 41.3 °F 29.90 in Calm   6 mph 65.4% 0.00 in 0 W/m2
02:39 52.4 °F 41.4 °F 29.90 in Calm     66.2% 0.00 in 0 W/m2
02:44 52.2 °F 41.3 °F 29.90 in Calm   1 mph 66.3% 0.00 in 0 W/m2
02:49 51.9 °F 41.3 °F 29.90 in Calm   1 mph 66.8% 0.00 in 0 W/m2
02:54 51.7 °F 41.2 °F 29.90 in Calm   1 mph 67% 0.00 in 0 W/m2
02:59 51.6 °F 40.8 °F 29.90 in Calm   1 mph 66.5% 0.00 in 0 W/m2
03:04 51.5 °F 40.9 °F 29.90 in Calm   1 mph 67% 0.00 in 0 W/m2
03:09 51.4 °F 40.5 °F 29.90 in Calm     66.1% 0.00 in 0 W/m2
03:14 51.4 °F 40.2 °F 29.90 in Calm     65.5% 0.00 in 0 W/m2
03:19 51.3 °F 40 °F 29.90 in Calm     65% 0.00 in 0 W/m2
03:24 51.3 °F 40 °F 29.90 in Calm   1 mph 65.2% 0.00 in 0 W/m2
03:29 51.2 °F 39.9 °F 29.91 in Calm   1 mph 65.2% 0.00 in 0 W/m2
03:34 51.2 °F 39.8 °F 29.91 in NW 0.2 mph 6 mph 65% 0.00 in 0 W/m2
03:39 51 °F 39.4 °F 29.91 in NW 0.7 mph 6 mph 64.3% 0.00 in 0 W/m2
03:44 50.8 °F 39.4 °F 29.92 in Calm   6 mph 64.9% 0.00 in 0 W/m2
03:49 50.5 °F 39.6 °F 29.92 in Calm   6 mph 66% 0.00 in 0 W/m2
03:54 50.3 °F 39.4 °F 29.92 in Calm   6 mph 66.2% 0.00 in 0 W/m2
03:59 50 °F 39.5 °F 29.92 in Calm   6 mph 67% 0.00 in 0 W/m2
04:00 49.8 °F 38.9 °F 29.92 in Calm   6 mph 66% 0.00 in 0 W/m2
04:09 49.4 °F 39.1 °F 29.92 in Calm     67.3% 0.00 in 0 W/m2
04:14 49.2 °F 39.3 °F 29.93 in Calm     68.4% 0.00 in 0 W/m2
04:19 49 °F 39.1 °F 29.93 in Calm     68.6% 0.00 in 0 W/m2
04:24 48.8 °F 39.1 °F 29.93 in Calm     69% 0.00 in 0 W/m2
04:29 48.7 °F 39 °F 29.92 in Calm   1 mph 69% 0.00 in 0 W/m2
04:34 48.5 °F 39.2 °F 29.92 in Calm   1 mph 70% 0.00 in 0 W/m2
04:39 48.3 °F 39 °F 29.92 in Calm   1 mph 70% 0.00 in 0 W/m2
04:44 48.1 °F 39.1 °F 29.92 in Calm   1 mph 70.6% 0.00 in 0 W/m2
04:49 48 °F 39 °F 29.92 in Calm   1 mph 71% 0.00 in 0 W/m2
04:54 47.8 °F 38.9 °F 29.92 in NW 0.3 mph 4 mph 71.2% 0.00 in 0 W/m2
04:59 47.6 °F 39 °F 29.92 in NW 0.6 mph 5 mph 72% 0.00 in 0 W/m2
05:04 47.4 °F 38.9 °F 29.92 in Calm   5 mph 72% 0.00 in 0 W/m2
05:09 47.3 °F 39 °F 29.92 in Calm     72.8% 0.00 in 0 W/m2
05:14 47.2 °F 39 °F 29.92 in Calm     73% 0.00 in 0 W/m2
05:19 47 °F 39 °F 29.93 in Calm     73.6% 0.00 in 0 W/m2
05:24 46.9 °F 39.1 °F 29.93 in Calm     74% 0.00 in 0 W/m2
05:29 46.8 °F 38.9 °F 29.93 in Calm     74% 0.00 in 0 W/m2
05:34 46.6 °F 39.1 °F 29.93 in Calm     74.8% 0.00 in 0 W/m2
05:39 46.5 °F 39 °F 29.93 in Calm     75% 0.00 in 0 W/m2
05:44 46.4 °F 38.9 °F 29.93 in Calm     75% 0.00 in 0 W/m2
05:49 46.3 °F 38.8 °F 29.93 in Calm     75% 0.00 in 0 W/m2
05:54 46.1 °F 38.9 °F 29.93 in Calm     75.8% 0.00 in 0 W/m2
05:59 46 °F 38.9 °F 29.93 in Calm     76% 0.00 in 0 W/m2
06:04 45.9 °F 39 °F 29.93 in Calm   1 mph 76.5% 0.00 in 0 W/m2
06:09 45.8 °F 39 °F 29.93 in Calm   1 mph 77% 0.00 in 0 W/m2
06:14 45.7 °F 38.9 °F 29.93 in Calm   1 mph 77% 0.00 in 0 W/m2
06:19 45.5 °F 39 °F 29.93 in Calm   1 mph 77.8% 0.00 in 0 W/m2
06:24 45.4 °F 39 °F 29.93 in Calm   1 mph 78% 0.00 in 0 W/m2
06:29 45.3 °F 38.8 °F 29.93 in Calm   1 mph 78% 0.00 in 0 W/m2
06:34 45.1 °F 39 °F 29.93 in Calm   1 mph 79% 0.00 in 0 W/m2
06:39 44.9 °F 38.9 °F 29.93 in Calm     79.4% 0.00 in 0 W/m2
06:44 44.6 °F 38.9 °F 29.93 in Calm     80.1% 0.00 in 0 W/m2
06:49 44.4 °F 39 °F 29.93 in Calm     81% 0.00 in 0 W/m2
06:54 44.3 °F 38.9 °F 29.93 in Calm     81.1% 0.00 in 0 W/m2
06:59 44.1 °F 39 °F 29.93 in Calm     82% 0.00 in 0 W/m2
07:04 44 °F 38.8 °F 29.93 in Calm     82% 0.00 in 0 W/m2
07:09 43.8 °F 38.8 °F 29.93 in Calm     82.2% 0.00 in 0 W/m2
07:14 43.7 °F 38.9 °F 29.93 in Calm     83% 0.00 in 0 W/m2
07:19 43.6 °F 38.8 °F 29.94 in Calm     83% 0.00 in 5 W/m2
07:24 43.6 °F 39 °F 29.94 in Calm     83.8% 0.00 in 9 W/m2
07:29 43.5 °F 39 °F 29.94 in Calm     84% 0.00 in 14 W/m2
07:34 43.4 °F 38.9 °F 29.94 in Calm     84% 0.00 in 23 W/m2
07:39 43.3 °F 39.1 °F 29.93 in Calm     84.8% 0.00 in 26 W/m2
07:44 43.3 °F 39.1 °F 29.93 in Calm     85% 0.00 in 28 W/m2
07:49 43.4 °F 39.4 °F 29.93 in Calm     85.5% 0.00 in 40 W/m2
07:54 43.5 °F 39.6 °F 29.93 in Calm     86% 0.00 in 62 W/m2
07:59 43.6 °F 39.7 °F 29.94 in Calm     86% 0.00 in 86 W/m2
08:00 43.7 °F 39.8 °F 29.94 in Calm     86% 0.00 in 86 W/m2
08:09 44 °F 40.2 °F 29.94 in Calm     86.4% 0.00 in 84 W/m2
08:14 44.3 °F 40.7 °F 29.95 in Calm     87% 0.00 in 109 W/m2
08:19 44.7 °F 41 °F 29.95 in Calm     87% 0.00 in 111 W/m2
08:24 45 °F 41.3 °F 29.95 in Calm     86.7% 0.00 in 95 W/m2
08:29 45.4 °F 41.5 °F 29.95 in Calm     86% 0.00 in 88 W/m2
08:34 45.9 °F 41.8 °F 29.95 in Calm   1 mph 85.6% 0.00 in 88 W/m2
08:39 46.3 °F 41.9 °F 29.95 in Calm   1 mph 84.8% 0.00 in 84 W/m2
08:44 46.7 °F 42 °F 29.95 in Calm   1 mph 83.7% 0.00 in 81 W/m2
08:49 47 °F 42 °F 29.95 in Calm   1 mph 82.5% 0.00 in 91 W/m2
08:54 47.4 °F 42.2 °F 29.95 in Calm   1 mph 82% 0.00 in 144 W/m2
08:59 47.8 °F 42.5 °F 29.95 in Calm   1 mph 81.8% 0.00 in 216 W/m2
09:04 48.4 °F 43 °F 29.95 in Calm   1 mph 81.4% 0.00 in 309 W/m2
09:09 49.3 °F 43.4 °F 29.95 in Calm   1 mph 79.9% 0.00 in 306 W/m2
09:14 49.9 °F 43.2 °F 29.95 in Calm   1 mph 77.7% 0.00 in 181 W/m2
09:19 50.3 °F 43.2 °F 29.95 in Calm   1 mph 76.4% 0.00 in 181 W/m2
09:24 50.5 °F 43.2 °F 29.95 in Calm   1 mph 75.8% 0.00 in 137 W/m2
09:29 50.7 °F 43.1 °F 29.95 in Calm   1 mph 75% 0.00 in 102 W/m2
09:34 50.7 °F 43.1 °F 29.95 in Calm   1 mph 75% 0.00 in 193 W/m2
09:39 50.8 °F 43.1 °F 29.95 in Calm     75% 0.00 in 244 W/m2
09:44 50.9 °F 43 °F 29.95 in Calm     74.2% 0.00 in 264 W/m2
09:49 51.2 °F 43.2 °F 29.95 in Calm     74.2% 0.00 in 207 W/m2
09:54 51.4 °F 43.6 °F 29.95 in Calm   1 mph 74.4% 0.00 in 146 W/m2
09:59 51.5 °F 43.1 °F 29.95 in Calm   1 mph 73% 0.00 in 167 W/m2
10:04 51.5 °F 43.7 °F 29.95 in Calm   1 mph 74.4% 0.00 in 178 W/m2
10:09 51.7 °F 44.4 °F 29.95 in Calm     76.1% 0.00 in 410 W/m2
10:14 52.3 °F 44.8 °F 29.95 in Calm   1 mph 75.5% 0.00 in 738 W/m2
10:19 53.4 °F 44.8 °F 29.95 in Calm   1 mph 72.6% 0.00 in 738 W/m2
10:24 53.8 °F 44.9 °F 29.95 in Calm   1 mph 71.7% 0.00 in 163 W/m2
10:29 53.8 °F 44.2 °F 29.95 in Calm   1 mph 70% 0.00 in 193 W/m2
10:34 53.5 °F 43.7 °F 29.95 in Calm   1 mph 69.3% 0.00 in 193 W/m2
10:39 53.1 °F 43.4 °F 29.95 in Calm     69.3% 0.00 in 204 W/m2
10:44 52.9 °F 43.2 °F 29.95 in Calm     69.4% 0.00 in 202 W/m2
10:49 52.8 °F 43.2 °F 29.95 in Calm     70% 0.00 in 181 W/m2
10:54 52.6 °F 43.1 °F 29.95 in Calm     69.9% 0.00 in 192 W/m2
10:59 52.3 °F 42.9 °F 29.94 in Calm   1 mph 70.1% 0.00 in 188 W/m2
11:04 52.3 °F 43.4 °F 29.94 in Calm   1 mph 71.7% 0.00 in 232 W/m2
11:09 52.4 °F 43.4 °F 29.94 in Calm     71.2% 0.00 in 332 W/m2
11:14 52.7 °F 43.5 °F 29.93 in Calm     70.9% 0.00 in 424 W/m2
11:19 53.2 °F 44.3 °F 29.93 in Calm   1 mph 71.5% 0.00 in 424 W/m2
11:24 53.9 °F 44.7 °F 29.93 in Calm   1 mph 70.9% 0.00 in 292 W/m2
11:29 54.3 °F 43.9 °F 29.93 in Calm   1 mph 67.8% 0.00 in 258 W/m2
11:34 54.5 °F 44 °F 29.93 in Calm   1 mph 67.5% 0.00 in 260 W/m2
11:39 54.8 °F 44.6 °F 29.93 in Calm     68.4% 0.00 in 174 W/m2
11:44 54.8 °F 44 °F 29.93 in Calm     66.8% 0.00 in 304 W/m2
11:49 54.8 °F 44.2 °F 29.94 in Calm     67.5% 0.00 in 325 W/m2
11:54 54.8 °F 44.7 °F 29.94 in Calm     68.7% 0.00 in 274 W/m2
11:59 54.9 °F 45 °F 29.94 in Calm     69.1% 0.00 in 255 W/m2
12:00 55 °F 45.4 °F 29.93 in Calm     70% 0.00 in 241 W/m2
12:09 55.6 °F 44.6 °F 29.93 in Calm     66.5% 0.00 in 278 W/m2
12:14 55.8 °F 44.7 °F 29.93 in Calm     66.2% 0.00 in 223 W/m2
12:19 56 °F 44.6 °F 29.93 in Calm     65.4% 0.00 in 211 W/m2
12:24 55.9 °F 44.6 °F 29.93 in Calm     65.7% 0.00 in 274 W/m2
12:29 56 °F 44.6 °F 29.93 in Calm     65.6% 0.00 in 299 W/m2
12:34 56.2 °F 44.7 °F 29.92 in North 0.1 mph 1 mph 65.3% 0.00 in 246 W/m2
12:39 56.7 °F 44.9 °F 29.92 in NNW 0.2 mph 1 mph 64.5% 0.00 in 229 W/m2
12:44 57.3 °F 45 °F 29.91 in Calm   1 mph 63.4% 0.00 in 332 W/m2
12:49 57.8 °F 44.7 °F 29.91 in Calm   1 mph 61.6% 0.00 in 142 W/m2
12:54 58.2 °F 44.3 °F 29.91 in Calm   1 mph 59.9% 0.00 in 144 W/m2
12:59 58.3 °F 44.4 °F 29.91 in West 0.2 mph 2 mph 59.8% 0.00 in 192 W/m2
13:04 58.5 °F 45.2 °F 29.91 in WSW 0.1 mph 2 mph 61.1% 0.00 in 146 W/m2
13:09 58.8 °F 45.3 °F 29.90 in West 0.1 mph 2 mph 60.8% 0.00 in 353 W/m2
13:14 59.1 °F 45.4 °F 29.89 in NW 0.1 mph 2 mph 60.6% 0.00 in 492 W/m2
13:19 59.4 °F 44.8 °F 29.90 in West 1.9 mph 8 mph 58.5% 0.00 in 492 W/m2
13:24 59.6 °F 44.6 °F 29.90 in WNW 0.6 mph 8 mph 57.6% 0.00 in 214 W/m2
13:29 59.8 °F 44.5 °F 29.90 in WNW 0.2 mph 8 mph 56.8% 0.00 in 214 W/m2
13:34 60.1 °F 44.4 °F 29.90 in WNW 3.3 mph 12 mph 56% 0.00 in 49 W/m2
13:39 60.2 °F 43.1 °F 29.90 in NW 1.4 mph 12 mph 53.3% 0.00 in 519 W/m2
13:44 60.3 °F 43.1 °F 29.89 in WNW 2.2 mph 12 mph 52.9% 0.00 in 443 W/m2
13:49 60.4 °F 43.4 °F 29.89 in WNW 1.9 mph 12 mph 53.4% 0.00 in 381 W/m2
13:54 60.5 °F 43.7 °F 29.89 in WNW 1.5 mph 12 mph 53.7% 0.00 in 381 W/m2
13:59 60.6 °F 43.7 °F 29.88 in NW 0.8 mph 12 mph 53.5% 0.00 in 223 W/m2
14:04 60.8 °F 43.1 °F 29.88 in West 2 mph 12 mph 52.2% 0.00 in 144 W/m2
14:09 60.9 °F 43.6 °F 29.88 in SSE 1.1 mph 8 mph 53% 0.00 in 178 W/m2
14:14 61 °F 44.5 °F 29.88 in NW 1.9 mph 8 mph 54.7% 0.00 in 186 W/m2
14:19 61.2 °F 43.6 °F 29.88 in NW 0.8 mph 8 mph 52.4% 0.00 in 185 W/m2
14:24 61.2 °F 43.1 °F 29.88 in WNW 3.4 mph 9 mph 51.4% 0.00 in 366 W/m2
14:29 61 °F 43.3 °F 29.88 in WNW 0.3 mph 9 mph 52% 0.00 in 322 W/m2
14:34 60.9 °F 43.3 °F 29.88 in NNW 1.4 mph 9 mph 52.2% 0.00 in 149 W/m2
14:39 60.8 °F 43.7 °F 29.87 in NNW 0.1 mph 9 mph 53.1% 0.00 in 123 W/m2
14:44 61 °F 44.1 °F 29.87 in NNW 0.2 mph 9 mph 53.6% 0.00 in 311 W/m2
14:49 61.2 °F 43.8 °F 29.87 in NW 1.8 mph 9 mph 52.6% 0.00 in 311 W/m2
14:54 61.2 °F 43.7 °F 29.87 in NW 1.9 mph 9 mph 52.5% 0.00 in 192 W/m2
14:59 61.3 °F 43.9 °F 29.87 in WNW 2.1 mph 9 mph 52.8% 0.00 in 192 W/m2
15:04 61.4 °F 43.9 °F 29.87 in WNW 0.2 mph 9 mph 52.6% 0.00 in 214 W/m2
15:09 61.5 °F 44.1 °F 29.87 in WNW 0.1 mph 2 mph 52.8% 0.00 in 156 W/m2
15:14 61.5 °F 43.7 °F 29.87 in Calm   2 mph 52% 0.00 in 422 W/m2
15:19 61.5 °F 43.2 °F 29.87 in WSW 0.1 mph 2 mph 51% 0.00 in 366 W/m2
15:24 61.6 °F 44 °F 29.87 in WNW 0.1 mph 2 mph 52.3% 0.00 in 102 W/m2
15:29 61.4 °F 43.9 °F 29.87 in Calm   2 mph 52.4% 0.00 in 100 W/m2
15:34 61.3 °F 43.8 °F 29.87 in WNW 0.1 mph 2 mph 52.6% 0.00 in 95 W/m2
15:39 61 °F 43.4 °F 29.87 in WNW 3.1 mph 8 mph 52.2% 0.00 in 74 W/m2
15:44 60.6 °F 42.6 °F 29.87 in WNW 2.4 mph 8 mph 51.4% 0.00 in 47 W/m2
15:49 60.3 °F 43 °F 29.87 in Calm   8 mph 52.9% 0.00 in 91 W/m2
15:54 60.1 °F 43.4 °F 29.87 in Calm   8 mph 54% 0.00 in 102 W/m2
15:59 60 °F 43.7 °F 29.87 in Calm   8 mph 54.8% 0.00 in 88 W/m2
16:09 59.9 °F 43.3 °F 29.87 in NW 0.8 mph 9 mph 54.2% 0.00 in 63 W/m2
16:14 59.6 °F 42.7 °F 29.88 in WNW 4.5 mph 9 mph 53.4% 0.00 in 56 W/m2
16:19 59.4 °F 42.5 °F 29.88 in West 3 mph 9 mph 53.3% 0.00 in 54 W/m2
16:24 59.2 °F 42.5 °F 29.88 in WNW 1.9 mph 9 mph 53.9% 0.00 in 62 W/m2
16:29 59 °F 42.5 °F 29.88 in West 0.5 mph 9 mph 54.3% 0.00 in 53 W/m2
16:34 58.9 °F 42.7 °F 29.88 in WNW 0.7 mph 9 mph 54.9% 0.00 in 30 W/m2
16:39 58.7 °F 42.9 °F 29.88 in Calm   7 mph 55.8% 0.00 in 37 W/m2
16:44 58.5 °F 42.9 °F 29.88 in Calm   7 mph 56% 0.00 in 49 W/m2
16:49 58.4 °F 42.9 °F 29.89 in Calm   7 mph 56.3% 0.00 in 53 W/m2
16:54 58.4 °F 43.2 °F 29.89 in WNW 0.1 mph 7 mph 57% 0.00 in 51 W/m2
16:59 58.3 °F 43.1 °F 29.89 in Calm   7 mph 57% 0.00 in 47 W/m2
17:04 58.3 °F 43.6 °F 29.89 in Calm     58% 0.00 in 39 W/m2
17:09 58.2 °F 43.5 °F 29.89 in Calm     58% 0.00 in 37 W/m2
17:14 58.2 °F 43.8 °F 29.90 in Calm     58.7% 0.00 in 26 W/m2
17:19 58.2 °F 43.9 °F 29.90 in Calm     59% 0.00 in 23 W/m2
17:24 58.1 °F 43.8 °F 29.90 in Calm   1 mph 59% 0.00 in 19 W/m2
17:29 57.9 °F 43.9 °F 29.90 in Calm   1 mph 59.4% 0.00 in 18 W/m2
17:34 57.8 °F 43.6 °F 29.91 in West 2.6 mph 6 mph 59.2% 0.00 in 11 W/m2
17:39 57.6 °F 43.5 °F 29.91 in Calm   6 mph 59.2% 0.00 in 9 W/m2
17:44 57.5 °F 43.3 °F 29.91 in Calm   6 mph 59% 0.00 in 7 W/m2
17:49 57.3 °F 43.4 °F 29.91 in Calm   6 mph 59.6% 0.00 in 5 W/m2
17:54 57.2 °F 43.6 °F 29.91 in Calm   6 mph 60.3% 0.00 in 0 W/m2
17:59 57.1 °F 43.3 °F 29.91 in Calm   6 mph 60% 0.00 in 0 W/m2
18:04 56.9 °F 43.3 °F 29.91 in Calm   6 mph 60.2% 0.00 in 0 W/m2
18:09 56.8 °F 43.3 °F 29.91 in Calm     60.6% 0.00 in 0 W/m2
18:14 56.6 °F 43.4 °F 29.91 in Calm     61% 0.00 in 0 W/m2
18:19 56.5 °F 43.4 °F 29.91 in Calm     61.3% 0.00 in 0 W/m2
18:24 56.4 °F 43.5 °F 29.92 in Calm     62% 0.00 in 0 W/m2
18:29 56.2 °F 43.4 °F 29.92 in Calm     62% 0.00 in 0 W/m2
18:34 56.1 °F 43.5 °F 29.92 in Calm     62.5% 0.00 in 0 W/m2
18:39 56 °F 43.5 °F 29.92 in Calm     62.7% 0.00 in 0 W/m2
18:44 55.9 °F 43.6 °F 29.92 in Calm     63.3% 0.00 in 0 W/m2
18:49 55.9 °F 43.9 °F 29.92 in Calm     64% 0.00 in 0 W/m2
18:54 55.8 °F 43.8 °F 29.93 in Calm     64% 0.00 in 0 W/m2
18:59 55.7 °F 44 °F 29.93 in Calm     64.6% 0.00 in 0 W/m2
19:04 55.7 °F 44.1 °F 29.92 in Calm     65.1% 0.00 in 0 W/m2
19:09 55.6 °F 44.3 °F 29.93 in Calm     65.8% 0.00 in 0 W/m2
19:14 55.5 °F 44.2 °F 29.93 in Calm     65.7% 0.00 in 0 W/m2
19:19 55.4 °F 44.2 °F 29.93 in Calm     66% 0.00 in 0 W/m2
19:24 55.3 °F 44.1 °F 29.92 in Calm   1 mph 66% 0.00 in 0 W/m2
19:29 55.2 °F 44.3 °F 29.92 in Calm   1 mph 66.6% 0.00 in 0 W/m2
19:34 55.1 °F 44.1 °F 29.92 in Calm   1 mph 66.4% 0.00 in 0 W/m2
19:39 55 °F 44.1 °F 29.93 in Calm     66.7% 0.00 in 0 W/m2
19:44 55 °F 44.1 °F 29.93 in Calm     66.6% 0.00 in 0 W/m2
19:49 54.9 °F 44.2 °F 29.93 in Calm     67% 0.00 in 0 W/m2
19:54 54.8 °F 44 °F 29.94 in NW 0.1 mph 1 mph 66.8% 0.00 in 0 W/m2
19:59 54.8 °F 43.7 °F 29.94 in NNW 0.1 mph 1 mph 66% 0.00 in 0 W/m2
20:09 54.6 °F 43.4 °F 29.93 in NNW 0.1 mph 1 mph 65.8% 0.00 in 0 W/m2
20:14 54.6 °F 43.1 °F 29.93 in NNW 0.1 mph 1 mph 65% 0.00 in 0 W/m2
20:19 54.5 °F 43 °F 29.93 in NNW 0.1 mph 1 mph 65% 0.00 in 0 W/m2
20:24 54.4 °F 42.9 °F 29.93 in Calm   1 mph 65% 0.00 in 0 W/m2
20:29 54.3 °F 42.8 °F 29.93 in NW 0.1 mph 1 mph 65% 0.00 in 0 W/m2
20:34 54.3 °F 42.9 °F 29.93 in Calm   1 mph 65.3% 0.00 in 0 W/m2
20:39 54.2 °F 42.9 °F 29.93 in NW 0.9 mph 7 mph 65.4% 0.00 in 0 W/m2
20:44 54.1 °F 42.6 °F 29.94 in NNW 0.6 mph 7 mph 65% 0.00 in 0 W/m2
20:49 54 °F 42.6 °F 29.94 in NW 1.9 mph 10 mph 65.3% 0.00 in 0 W/m2
20:54 53.9 °F 42.4 °F 29.94 in Calm   10 mph 65% 0.00 in 0 W/m2
20:59 53.8 °F 42.6 °F 29.94 in North 0.1 mph 10 mph 65.7% 0.00 in 0 W/m2
21:04 53.7 °F 42.4 °F 29.94 in Calm   10 mph 65.4% 0.00 in 0 W/m2
21:09 53.6 °F 42.3 °F 29.94 in Calm   1 mph 65.4% 0.00 in 0 W/m2
21:14 53.5 °F 42.4 °F 29.94 in North 0.1 mph 1 mph 65.8% 0.00 in 0 W/m2
21:19 53.4 °F 42.4 °F 29.95 in Calm   1 mph 66% 0.00 in 0 W/m2
21:24 53.4 °F 42.4 °F 29.95 in Calm   1 mph 66.1% 0.00 in 0 W/m2
21:29 53.3 °F 42.4 °F 29.95 in Calm   1 mph 66.5% 0.00 in 0 W/m2
21:34 53.2 °F 42.4 °F 29.95 in Calm   1 mph 66.5% 0.00 in 0 W/m2
21:39 53.2 °F 42.5 °F 29.95 in Calm     67% 0.00 in 0 W/m2
21:44 53.2 °F 42.8 °F 29.95 in Calm     67.7% 0.00 in 0 W/m2
21:49 53.1 °F 43.4 °F 29.95 in Calm     69.6% 0.00 in 0 W/m2
21:54 53.1 °F 43.7 °F 29.95 in Calm     70.2% 0.00 in 0 W/m2
21:59 53 °F 43.9 °F 29.96 in Calm     71% 0.00 in 0 W/m2
22:04 52.9 °F 43.8 °F 29.96 in Calm     71% 0.00 in 0 W/m2
22:09 52.8 °F 43.6 °F 29.96 in Calm     70.9% 0.00 in 0 W/m2
22:14 52.7 °F 43 °F 29.96 in Calm     69.4% 0.00 in 0 W/m2
22:19 52.6 °F 42.7 °F 29.96 in Calm     68.9% 0.00 in 0 W/m2
22:24 52.6 °F 42.6 °F 29.96 in Calm   1 mph 68.8% 0.00 in 0 W/m2
22:29 52.6 °F 42.7 °F 29.96 in Calm   1 mph 69% 0.00 in 0 W/m2
22:34 52.5 °F 42.6 °F 29.96 in Calm   1 mph 69% 0.00 in 0 W/m2
22:39 52.5 °F 42.8 °F 29.96 in Calm     69.4% 0.00 in 0 W/m2
22:44 52.4 °F 42.9 °F 29.96 in Calm     69.8% 0.00 in 0 W/m2
22:49 52.4 °F 43 °F 29.96 in Calm     70.2% 0.00 in 0 W/m2
22:54 52.3 °F 43 °F 29.96 in Calm     70.6% 0.00 in 0 W/m2
22:59 52.3 °F 43.4 °F 29.96 in Calm     71.8% 0.00 in 0 W/m2
23:04 52.2 °F 43.6 °F 29.96 in Calm     72.4% 0.00 in 0 W/m2
23:09 52.1 °F 43.7 °F 29.96 in Calm     73% 0.00 in 0 W/m2
23:14 52 °F 44 °F 29.96 in Calm     74% 0.00 in 0 W/m2
23:19 51.9 °F 44.4 °F 29.96 in Calm     75.5% 0.00 in 0 W/m2
23:24 51.8 °F 44.5 °F 29.96 in Calm     76% 0.00 in 0 W/m2
23:29 51.7 °F 44.7 °F 29.96 in Calm     77% 0.00 in 0 W/m2
23:34 51.5 °F 44.7 °F 29.96 in Calm     77.4% 0.00 in 0 W/m2
23:39 51.4 °F 45.1 °F 29.96 in Calm     78.9% 0.00 in 0 W/m2
23:44 51.3 °F 45.4 °F 29.96 in Calm     80.2% 0.00 in 0 W/m2
23:49 51.1 °F 45.5 °F 29.96 in Calm     81% 0.00 in 0 W/m2
23:54 50.9 °F 45.4 °F 29.97 in Calm     81.5% 0.00 in 0 W/m2
23:59 50.7 °F 45.5 °F 29.97 in Calm     82% 0.00 in 0 W/m2
Hartford County Weather
Compliments of Weather Underground - 2 mb